Date,TemperatureHighF,TemperatureAvgF,TemperatureLowF,DewpointHighF,DewpointAvgF,DewpointLowF,HumidityHigh,HumidityAvg,HumidityLow,PressureMaxIn,PressureMinIn,WindSpeedMaxMPH,WindSpeedAvgMPH,GustSpeedMaxMPH,PrecipitationSumIn
2014-1-1,68.0,49.3,35.0,22.1,15.5,8.9,36,26,17,30.29,30.18,4,1,5,0.00
2014-1-2,68.1,50.5,36.5,26.6,21.4,15.8,44,32,21,30.26,30.10,5,2,7,0.00
2014-1-3,65.1,46.7,37.2,27.6,22.9,20.0,50,39,24,30.12,29.94,5,1,7,0.00
2014-1-4,67.2,51.1,38.0,28.7,24.3,20.8,52,36,23,30.12,29.91,6,1,7,0.00
2014-1-5,61.5,45.5,34.6,21.8,9.8,2.5,48,24,13,30.33,30.12,5,1,7,0.00
2014-1-6,59.0,43.9,29.9,13.0,7.8,2.6,32,23,15,30.44,30.23,4,1,5,0.00
2014-1-7,59.4,44.8,37.0,15.2,11.5,8.0,34,26,16,30.23,30.08,6,1,7,0.00
2014-1-8,60.5,44.7,28.4,17.1,12.3,6.6,42,27,18,30.21,30.06,6,1,7,0.00
2014-1-9,60.2,45.6,35.8,23.7,17.7,12.9,45,33,21,30.13,29.99,11,2,15,0.00
2014-1-10,65.3,53.6,42.6,29.4,26.2,22.9,49,35,25,30.19,30.08,4,1,6,0.00
2014-1-11,72.3,55.2,35.3,32.3,27.7,22.8,62,37,18,30.21,29.94,24,7,27,0.00
2014-1-12,64.3,54.8,42.0,32.9,24.9,14.8,53,32,22,30.34,29.90,24,6,29,0.00
2014-1-13,65.2,50.5,39.9,20.6,16.6,14.2,36,26,18,30.51,30.33,9,2,11,0.00
2014-1-14,72.0,54.8,38.0,19.9,14.3,8.5,37,21,12,30.52,30.37,8,2,11,0.00
2014-1-15,71.7,57.2,43.0,19.2,13.4,9.2,26,18,12,30.41,30.25,9,3,11,0.00
2014-1-16,73.6,58.3,45.3,14.5,9.4,4.5,23,15,9,30.31,30.18,8,3,10,0.00
2014-1-17,68.0,51.3,44.1,14.8,8.9,6.6,22,18,12,30.23,30.12,11,4,13,0.00
2014-1-18,70.3,52.6,40.8,16.4,10.2,5.6,24,18,11,30.25,30.11,9,2,11,0.00
2014-1-19,70.3,52.9,39.2,18.2,11.7,6.7,27,20,13,30.23,30.10,6,2,8,0.00
2014-1-20,70.3,53.1,39.4,17.1,12.2,7.7,27,20,13,30.30,30.15,9,2,13,0.00
2014-1-21,67.7,52.6,38.3,18.0,13.2,8.2,29,21,14,30.32,30.17,9,2,11,0.00
2014-1-22,73.5,54.8,41.9,18.5,13.1,8.9,27,20,11,30.17,29.90,7,2,11,0.00
2014-1-23,65.3,52.7,37.1,19.3,14.6,6.9,29,22,16,30.23,29.92,12,4,17,0.00
2014-1-24,65.4,55.2,45.7,22.6,19.3,17.0,33,25,18,30.36,30.23,9,2,15,0.00
2014-1-25,69.3,55.9,46.3,22.5,17.7,12.9,29,23,15,30.28,30.13,8,3,10,0.00
2014-1-26,64.8,52.8,40.8,22.8,18.1,12.2,32,26,18,30.14,30.00,6,1,10,0.00
2014-1-27,74.5,58.0,43.6,25.0,19.7,14.2,33,23,13,30.10,29.99,11,4,14,0.00
2014-1-28,72.7,57.3,39.8,25.3,21.3,17.6,41,26,16,30.15,30.04,10,2,12,0.00
2014-1-29,77.2,61.1,42.2,38.1,26.9,18.7,41,28,17,30.12,29.78,25,7,26,0.00
2014-1-30,65.4,59.3,50.9,43.2,36.2,27.3,59,43,25,29.78,29.61,24,18,33,0.00
2014-1-31,59.7,50.3,41.6,35.6,28.6,18.4,63,44,31,29.95,29.68,23,10,33,0.00
2014-2-1,55.4,44.3,34.4,29.0,14.1,7.4,66,31,17,30.11,29.95,15,5,22,0.00
2014-2-2,54.1,41.7,29.9,28.5,20.0,11.2,60,43,23,30.10,29.91,31,9,39,0.00
2014-2-3,55.9,43.6,31.2,28.9,25.8,22.8,74,51,31,29.98,29.85,16,5,19,0.00
2014-2-4,54.7,44.1,30.1,27.3,24.4,20.0,72,47,32,30.08,29.94,11,3,14,0.00
2014-2-5,59.0,46.5,35.2,29.3,25.2,20.9,57,44,28,30.14,29.98,12,3,14,0.00
2014-2-6,59.7,48.8,41.1,43.6,32.8,24.0,80,55,38,30.00,29.83,22,11,26,0.02
2014-2-7,64.4,54.3,45.2,35.4,32.5,27.7,66,45,26,30.01,29.87,32,18,39,0.00
2014-2-8,70.6,59.8,45.8,42.6,37.8,32.5,64,45,26,30.11,29.95,31,17,39,0.00
2014-2-9,78.7,63.9,53.0,43.1,37.3,29.6,64,40,19,30.03,29.83,26,15,34,0.00
2014-2-10,74.6,63.9,55.3,39.9,35.2,28.0,51,36,19,30.05,29.85,26,10,33,0.00
2014-2-11,73.5,59.3,50.3,38.6,33.6,28.3,59,40,23,30.13,30.00,14,5,17,0.00
2014-2-12,72.6,57.7,42.7,32.0,28.7,25.5,52,34,21,30.18,30.03,6,1,10,0.00
2014-2-13,81.1,62.5,44.6,31.9,26.8,22.5,45,28,13,30.10,29.91,21,5,25,0.00
2014-2-14,79.5,66.5,43.2,32.7,24.5,17.7,40,21,14,30.05,29.91,20,6,25,0.00
2014-2-15,85.9,64.1,47.4,27.5,20.0,14.4,29,19,11,30.00,29.87,17,6,24,0.00
2014-2-16,81.6,68.2,54.6,35.5,27.8,21.0,37,23,13,29.99,29.83,22,9,28,0.00
2014-2-17,78.7,61.7,43.5,33.7,27.9,10.9,52,30,8,30.01,29.84,24,9,30,0.00
2014-2-18,77.5,63.2,51.5,31.6,26.4,18.1,42,26,15,30.03,29.88,16,6,21,0.00
2014-2-19,82.0,65.6,55.1,32.7,28.2,22.2,40,26,12,29.93,29.71,26,13,32,0.00
2014-2-20,68.6,57.6,45.0,26.6,21.4,16.5,38,25,16,30.14,29.93,10,3,12,0.00
2014-2-21,72.8,57.8,41.5,28.4,20.4,15.0,34,24,14,30.07,29.86,12,4,13,0.00
2014-2-22,73.6,59.1,43.7,28.5,23.6,19.6,42,27,16,29.95,29.83,10,3,12,0.00
2014-2-23,75.9,59.4,41.4,30.9,26.4,21.1,51,30,18,29.98,29.86,7,2,10,0.00
2014-2-24,77.6,60.3,41.7,29.2,24.5,18.9,46,27,16,30.00,29.86,10,2,11,0.00
2014-2-25,78.1,61.7,43.1,36.6,27.6,20.7,43,29,17,29.97,29.83,23,7,28,0.00
2014-2-26,68.9,59.2,52.5,45.2,37.1,26.8,76,45,28,29.92,29.82,34,19,39,0.00
2014-2-27,68.7,59.0,51.1,46.0,33.5,16.5,76,44,17,29.91,29.70,34,22,43,0.00
2014-2-28,59.7,49.5,46.0,51.2,43.6,35.9,94,81,49,29.76,29.49,34,13,39,0.85
2014-3-1,56.4,49.3,43.7,45.4,41.6,38.9,89,75,55,29.92,29.67,22,6,26,0.02
2014-3-2,59.0,50.8,41.2,46.3,42.0,37.7,89,72,60,30.11,29.92,21,9,27,0.00
2014-3-3,65.3,53.5,40.6,46.2,42.7,38.0,92,69,44,30.16,29.99,13,4,16,0.00
2014-3-4,69.9,59.0,50.5,45.6,42.4,38.3,76,55,36,30.02,29.89,16,5,26,0.00
2014-3-5,76.9,61.6,44.9,46.1,40.0,34.5,86,49,24,30.10,29.94,17,7,24,0.00
2014-3-6,79.1,67.2,59.0,44.1,38.8,32.1,48,36,25,29.95,29.74,24,14,35,0.00
2014-3-7,73.2,61.6,49.9,32.5,24.6,17.0,37,25,13,30.07,29.82,18,7,22,0.00
2014-3-8,74.9,60.6,46.7,29.7,25.8,21.6,44,28,17,30.22,30.06,11,4,13,0.00
2014-3-9,77.8,63.1,50.0,34.1,26.8,18.3,52,27,13,30.25,30.06,9,2,11,0.00
2014-3-10,79.8,67.6,59.1,37.0,29.9,21.8,39,25,14,30.06,29.82,24,16,33,0.00
2014-3-11,68.2,57.8,48.4,35.8,24.4,14.8,42,28,19,30.09,29.90,13,4,19,0.00
2014-3-12,66.5,56.1,47.3,24.2,20.3,14.7,31,25,18,30.18,30.00,17,6,23,0.00
2014-3-13,71.9,58.2,46.2,24.3,20.4,16.6,34,24,14,30.02,29.89,12,4,15,0.00
2014-3-14,80.2,64.8,48.3,28.7,21.2,12.2,33,20,8,30.06,29.94,12,6,15,0.00
2014-3-15,80.4,65.1,51.0,32.2,28.1,21.2,39,26,16,30.27,30.06,8,3,11,0.00
2014-3-16,83.9,67.9,51.8,29.9,26.6,22.6,39,23,12,30.30,29.97,19,6,25,0.00
2014-3-17,82.4,70.6,60.9,30.7,25.3,17.2,27,19,12,29.97,29.54,27,16,33,0.00
2014-3-18,67.8,58.1,47.0,23.2,16.3,9.9,30,20,13,29.99,29.71,13,5,18,0.00
2014-3-19,72.2,56.1,38.4,19.1,14.4,10.5,35,20,12,30.13,29.99,9,2,12,0.00
2014-3-20,77.6,60.9,44.9,30.3,20.6,11.0,30,22,14,30.05,29.82,15,3,19,0.00
2014-3-21,79.2,65.2,48.7,34.4,28.7,23.4,41,26,16,29.86,29.70,17,7,26,0.00
2014-3-22,78.7,66.3,55.7,33.8,31.3,25.0,39,28,18,29.94,29.75,14,6,17,0.00
2014-3-23,79.2,65.6,48.7,31.0,25.1,13.9,41,23,10,30.04,29.92,15,6,19,0.00
2014-3-24,82.6,66.7,52.3,27.9,19.6,11.3,31,18,8,30.06,29.92,9,3,17,0.00
2014-3-25,83.8,70.3,50.4,34.7,28.0,17.5,32,22,12,29.87,29.63,19,11,31,0.00
2014-3-26,64.9,56.8,52.5,36.1,33.3,28.8,52,42,29,29.79,29.58,41,21,49,0.00
2014-3-27,69.2,55.6,49.2,35.0,32.3,29.4,50,42,25,29.97,29.78,26,16,35,0.00
2014-3-28,74.6,59.1,40.5,36.1,32.3,25.9,69,39,22,30.14,29.96,19,6,22,0.00
2014-3-29,81.5,67.2,59.0,38.0,30.8,22.8,44,26,18,30.04,29.75,23,13,27,0.00
2014-3-30,70.6,58.7,47.6,38.9,28.2,15.9,53,34,14,29.90,29.72,27,18,38,0.00
2014-3-31,72.4,56.7,47.9,35.2,25.9,19.3,58,32,17,29.89,29.73,33,19,42,0.00
2014-4-1,63.4,50.9,41.9,37.3,25.9,14.8,67,40,18,29.87,29.76,28,16,33,0.00
2014-4-2,60.9,51.3,42.6,31.6,26.7,20.5,59,39,27,29.98,29.76,29,12,29,0.00
2014-4-3,69.2,56.1,41.5,36.3,27.1,22.5,54,35,19,30.10,29.93,18,8,21,0.00
2014-4-4,70.3,58.3,50.5,36.0,28.9,11.8,54,36,11,29.94,29.75,20,14,30,0.00
2014-4-5,74.0,58.7,43.8,34.7,29.9,25.2,53,35,18,30.01,29.78,16,7,20,0.00
2014-4-6,79.6,64.5,47.6,36.9,28.5,22.7,41,27,17,30.14,29.98,11,4,14,0.00
2014-4-7,85.6,69.9,55.0,35.6,27.6,21.7,37,22,12,30.16,30.00,8,4,13,0.00
2014-4-8,89.0,72.5,53.5,33.2,26.7,18.5,33,20,9,30.11,29.93,18,6,22,0.00
2014-4-9,93.3,77.7,67.5,35.1,25.6,10.8,27,16,5,29.96,29.80,19,11,26,0.00
2014-4-10,92.6,78.4,64.8,32.7,25.1,18.7,23,15,8,29.88,29.72,23,11,28,0.00
2014-4-11,90.6,76.3,64.5,35.5,29.7,23.6,28,19,9,29.78,29.60,29,13,34,0.00
2014-4-12,89.3,73.7,63.0,42.7,37.1,30.0,39,27,15,29.65,29.53,19,9,26,0.00
2014-4-13,89.9,74.4,62.3,42.0,33.1,14.9,38,24,10,29.88,29.62,17,6,23,0.00
2014-4-14,81.5,69.2,55.0,19.1,15.8,10.4,18,13,9,30.09,29.88,13,4,16,0.00
2014-4-15,89.0,72.1,56.9,40.3,29.9,16.1,32,22,14,29.95,29.65,17,6,23,0.00
2014-4-16,91.4,75.4,56.4,36.8,33.8,29.2,38,23,12,29.72,29.57,13,6,17,0.00
2014-4-17,89.6,75.3,55.7,39.7,35.5,30.6,41,25,15,29.75,29.63,19,8,28,0.00
2014-4-18,83.6,72.0,64.0,46.6,41.4,31.6,46,34,18,29.75,29.63,20,10,27,0.00
2014-4-19,87.1,72.6,60.9,45.9,43.9,37.5,52,37,20,29.87,29.75,18,9,23,0.00
2014-4-20,91.1,75.5,60.4,46.3,40.4,33.8,46,30,14,29.94,29.81,19,8,23,0.00
2014-4-21,91.1,75.5,57.9,35.4,30.5,21.7,38,21,10,29.94,29.74,23,11,33,0.00
2014-4-22,73.3,66.0,56.6,36.2,28.3,22.3,36,25,16,29.75,29.63,31,19,40,0.00
2014-4-23,77.4,63.7,51.4,33.0,23.3,15.9,34,22,13,29.94,29.75,18,8,23,0.00
2014-4-24,83.9,68.7,53.2,36.9,31.7,24.8,40,27,12,29.94,29.71,22,9,27,0.00
2014-4-25,75.0,64.1,50.4,44.8,37.1,32.6,68,38,25,29.73,29.55,26,18,33,0.00
2014-4-26,69.2,56.6,45.1,32.6,27.3,22.9,51,34,21,29.81,29.47,26,14,31,0.00
2014-4-27,78.2,62.2,47.8,34.7,31.8,28.5,48,33,19,29.91,29.75,22,11,28,0.00
2014-4-28,81.2,67.2,55.6,34.7,31.0,22.9,40,27,17,30.05,29.84,17,6,25,0.00
2014-4-29,82.9,70.2,55.1,29.2,19.4,12.5,33,16,8,30.20,30.00,18,6,25,0.00
2014-4-30,83.3,70.0,54.1,20.8,15.4,9.2,21,13,7,30.19,29.97,17,7,23,0.00
2014-5-1,89.9,74.7,57.7,34.6,18.8,8.7,24,13,8,30.14,29.92,13,5,19,0.00
2014-5-2,97.3,82.9,58.9,38.2,30.4,18.1,38,17,8,29.96,29.76,20,10,25,0.00
2014-5-3,95.7,82.0,71.0,33.2,25.7,16.7,22,14,6,29.78,29.67,24,14,30,0.00
2014-5-4,92.7,78.0,66.5,38.1,31.2,19.1,32,20,8,29.76,29.67,28,16,34,0.00
2014-5-5,83.6,70.6,59.9,42.7,37.3,32.5,53,31,17,29.74,29.64,23,16,32,0.00
2014-5-6,72.1,59.4,51.9,43.4,32.8,27.9,57,38,21,29.72,29.57,26,13,33,0.00
2014-5-7,68.9,55.6,51.5,35.6,32.9,27.5,51,43,22,29.80,29.71,14,8,17,0.00
2014-6-7,106.2,88.5,67.9,42.8,37.1,30.1,31,18,8,29.60,29.47,17,6,0,0.00
2014-6-8,107.4,93.5,78.4,44.4,37.6,31.0,25,15,8,29.65,29.53,14,6,0,0.00
2014-6-9,107.7,94.4,79.2,45.3,39.3,29.0,29,16,8,29.64,29.48,20,9,0,0.00
2014-6-10,105.1,92.5,77.8,45.1,40.5,36.3,26,17,10,29.55,29.42,19,9,0,0.00
2014-6-11,102.8,89.4,77.7,48.3,44.8,41.4,33,22,13,29.59,29.50,21,11,0,0.00
2014-6-12,102.0,87.4,75.3,47.6,43.0,37.8,33,22,12,29.67,29.57,26,16,0,0.00
2014-6-13,96.1,84.0,74.6,44.6,35.2,23.7,33,19,8,29.63,29.51,29,20,37,0.00
2014-6-14,95.4,80.6,67.5,32.9,26.0,-99.9,24,14,8,29.75,29.58,26,6,32,0.00
2014-6-15,95.0,81.9,71.2,38.5,31.4,19.0,25,17,11,29.59,29.50,37,18,40,0.00
2014-6-16,91.0,79.2,72.0,39.4,34.6,26.4,28,21,10,29.62,29.53,43,19,43,0.00
2014-6-17,88.0,76.6,66.9,39.0,33.0,22.1,33,21,12,29.65,29.55,45,23,46,0.00
2014-6-18,90.9,77.1,61.2,36.5,30.9,24.6,29,19,11,29.84,29.65,16,5,17,0.00
2014-6-19,99.0,86.8,70.5,37.9,32.4,24.8,23,15,9,29.85,29.73,18,6,27,0.00
2014-6-20,102.9,88.2,75.7,38.7,34.2,24.6,22,15,7,29.78,29.61,29,12,30,0.00
2014-6-21,106.9,88.9,68.5,37.8,32.4,23.9,24,14,8,29.69,29.53,30,9,32,0.00
2014-6-22,103.8,89.2,76.5,34.9,29.6,24.6,16,12,8,29.67,29.54,27,10,29,0.00
2014-6-23,103.8,88.3,73.4,41.7,33.4,27.9,22,15,8,29.69,29.59,30,9,31,0.00
2014-6-24,106.0,88.6,75.9,44.1,39.5,35.1,25,19,11,29.72,29.55,33,11,36,0.00
2014-6-25,104.7,89.6,77.4,45.7,39.6,33.6,26,18,11,29.65,29.52,37,12,41,0.00
2014-6-26,89.4,80.2,75.4,49.1,45.4,40.5,39,30,23,29.64,29.49,46,21,47,0.00
2014-6-27,100.6,85.1,70.5,50.5,45.7,41.2,38,26,16,29.71,29.52,25,9,25,0.00
2014-6-28,105.4,89.9,75.4,50.4,46.6,39.2,35,24,13,29.66,29.54,28,10,29,0.00
2014-6-29,109.2,91.2,72.9,50.7,46.5,42.3,38,23,12,29.71,29.57,25,8,27,0.00
2014-6-30,110.5,94.8,78.6,47.5,44.1,39.0,28,18,10,29.69,29.55,26,8,29,0.00
2014-7-1,111.0,96.4,77.2,49.6,44.4,31.3,31,18,7,29.64,29.50,33,11,35,0.00
2014-7-2,109.8,95.4,80.8,48.0,42.5,30.7,28,17,7,29.66,29.55,30,12,32,0.00
2014-7-3,107.4,93.9,81.3,47.5,42.4,35.6,27,18,9,29.71,29.59,36,15,40,0.00
2014-7-4,106.3,93.2,80.2,53.8,46.9,42.6,28,21,12,29.82,29.67,33,13,33,0.00
2014-7-5,106.0,92.2,80.8,58.1,47.9,40.6,31,23,16,29.88,29.73,33,10,35,0.00
2014-7-6,107.2,92.1,77.9,54.7,49.6,42.4,35,24,17,29.85,29.66,23,5,23,0.00
2014-7-7,108.1,94.4,80.1,55.0,48.1,37.9,37,22,14,29.74,29.58,29,6,29,0.00
2014-7-8,108.0,95.4,82.8,51.6,43.1,34.9,25,17,12,29.72,29.59,24,8,26,0.00
2014-7-9,107.1,93.5,79.9,48.6,42.5,36.9,24,18,12,29.75,29.57,31,10,31,0.00
2014-7-10,103.3,89.4,80.2,46.0,42.6,38.3,26,20,13,29.73,29.60,36,14,39,0.00
2014-7-11,99.0,86.9,74.7,48.9,44.5,40.6,31,24,14,29.79,29.67,29,10,29,0.00
2014-7-12,105.6,90.3,76.5,50.7,44.1,34.9,35,22,10,29.84,29.72,22,6,22,0.00
2014-7-13,112.5,97.3,81.3,51.3,46.7,41.2,27,19,12,29.80,29.59,28,5,28,0.00
2014-7-14,106.2,94.4,84.4,57.9,54.0,49.6,34,26,20,29.78,29.63,28,8,28,0.00
2014-7-15,104.4,91.8,78.6,60.8,55.6,48.9,46,31,20,29.83,29.67,32,7,32,0.00
2014-7-16,105.1,91.3,80.8,57.6,52.5,42.1,40,28,14,29.77,29.61,36,13,37,0.00
2014-7-17,104.7,87.8,75.7,55.4,49.7,36.3,44,29,11,29.77,29.63,32,13,33,0.00
2014-7-18,104.2,87.3,70.0,52.5,48.2,35.4,48,29,10,29.79,29.66,30,10,32,0.00
2014-7-19,99.5,87.3,79.5,54.0,50.0,45.3,39,29,19,29.79,29.69,22,9,23,0.00
2014-7-20,102.6,88.1,73.0,55.6,50.5,44.2,43,29,15,29.78,29.64,36,9,38,0.00
2014-7-21,99.9,86.1,74.1,56.8,53.4,48.7,49,34,19,29.85,29.71,33,13,34,0.00
2014-7-22,103.5,88.5,70.9,53.8,48.6,35.8,50,28,11,29.89,29.76,30,10,30,0.00
2014-7-23,108.1,91.0,76.8,51.1,44.4,30.0,36,23,7,29.85,29.67,32,15,32,0.00
2014-7-24,109.4,91.6,74.8,51.3,44.4,29.1,41,23,8,29.75,29.57,26,10,27,0.00
2014-7-25,109.6,94.4,78.3,48.7,40.2,29.8,26,17,7,29.69,29.59,34,17,37,0.00
2014-7-26,107.8,94.1,80.2,49.6,45.1,36.5,31,20,10,29.78,29.66,29,11,29,0.00
2014-7-27,107.6,95.1,84.7,53.4,46.8,41.9,27,20,16,29.80,29.67,34,11,37,0.00
2014-7-28,95.2,86.0,79.9,61.5,55.2,49.3,47,35,25,29.92,29.79,31,10,33,0.00
2014-7-29,104.4,89.1,73.0,56.8,52.4,46.6,53,31,18,29.94,29.74,20,5,20,0.00
2014-7-30,107.4,91.4,81.3,56.5,50.8,46.6,37,26,16,29.82,29.71,40,8,40,0.00
2014-7-31,107.1,91.6,75.9,58.1,51.7,48.0,43,27,16,29.83,29.65,30,4,33,0.00
2014-8-1,108.9,95.9,84.0,52.9,48.4,44.1,29,21,12,29.74,29.61,31,9,31,0.00
2014-8-2,99.9,90.2,79.0,60.6,50.6,43.0,33,26,18,29.78,29.65,39,12,40,0.00
2014-8-3,84.6,75.2,66.9,64.8,59.0,46.9,89,60,28,29.91,29.71,37,8,38,0.07
2014-8-4,97.9,80.9,64.4,60.3,52.1,41.5,80,43,17,29.89,29.72,26,6,26,0.00
2014-8-5,99.1,85.5,73.9,51.4,46.9,40.5,38,27,15,29.86,29.72,28,8,31,0.00
2014-8-6,99.7,85.2,72.9,52.7,47.9,35.4,48,30,11,29.84,29.70,23,9,23,0.00
2014-8-7,101.1,87.2,74.5,52.0,46.1,34.2,41,26,13,29.80,29.65,21,6,21,0.00
2014-8-8,102.6,89.2,73.0,53.1,46.7,32.0,44,25,10,29.78,29.65,19,7,21,0.00
2014-8-9,103.8,90.8,78.8,51.1,45.4,36.7,32,22,12,29.79,29.67,28,8,28,0.00
2014-8-10,103.1,90.1,73.6,47.1,43.4,31.1,33,21,9,29.83,29.70,28,6,28,0.00
2014-8-11,98.1,86.4,70.0,63.3,53.0,44.8,69,34,21,29.83,29.74,23,7,27,0.09
2014-8-12,103.3,89.8,73.2,59.2,55.6,49.6,56,33,22,29.85,29.65,28,7,30,0.00
2014-8-13,99.0,87.9,77.7,52.7,46.8,30.9,38,26,10,29.78,29.67,39,18,40,0.00
2014-8-14,99.9,86.1,75.7,52.3,40.6,21.9,42,23,7,29.80,29.68,43,20,45,0.00
2014-8-15,102.0,88.1,75.4,46.6,39.9,30.6,36,20,9,29.85,29.71,32,14,34,0.00
2014-8-16,105.8,90.0,75.2,39.7,35.7,29.5,25,16,8,29.88,29.70,26,9,27,0.00
2014-8-17,108.0,91.9,79.0,43.5,36.6,28.0,20,15,10,29.81,29.64,28,9,29,0.00
2014-8-18,104.0,90.6,81.0,43.7,36.5,25.7,23,16,8,29.68,29.55,29,14,31,0.00
2014-8-19,98.1,84.2,74.5,49.8,39.9,27.3,40,22,10,29.64,29.52,40,19,42,0.00
2014-8-20,93.6,80.5,65.3,46.9,43.3,37.8,42,28,17,29.81,29.63,29,9,30,0.00
2014-8-21,97.0,82.9,65.5,54.1,47.3,42.8,46,30,19,29.85,29.71,32,7,33,0.00
2014-8-22,100.0,85.9,74.3,51.4,46.5,35.2,40,27,11,29.78,29.61,36,16,39,0.00
2014-8-23,98.6,85.0,73.6,46.9,44.4,40.6,35,25,15,29.76,29.61,31,13,32,0.00
2014-8-24,97.9,82.8,68.2,46.9,42.9,30.9,42,26,11,29.73,29.58,39,12,39,0.00
2014-8-25,95.7,80.2,70.7,43.2,38.6,29.8,35,24,11,29.74,29.62,46,24,46,0.00
2014-8-26,97.5,82.1,71.1,42.6,38.9,28.9,33,23,10,29.85,29.72,46,12,46,0.00
2014-8-27,99.9,84.8,70.5,44.4,39.6,32.2,34,22,12,29.94,29.81,25,7,25,0.00
2014-8-28,104.0,88.5,69.6,41.5,36.4,30.0,28,17,10,29.91,29.70,23,7,24,0.00
2014-8-29,105.3,89.7,75.4,41.9,35.0,29.5,22,15,8,29.77,29.60,27,8,27,0.00
2014-8-30,108.1,89.8,73.8,47.7,41.0,31.5,31,19,12,29.68,29.52,34,10,34,0.00
2014-8-31,105.6,91.2,79.0,39.9,36.0,30.9,22,15,10,29.66,29.52,33,11,33,0.00
2014-9-1,104.4,88.0,66.9,45.9,39.2,33.3,30,19,10,29.69,29.57,23,8,24,0.00
2014-9-2,103.8,89.5,70.7,46.2,43.2,36.7,34,21,11,29.70,29.52,30,8,30,0.00
2014-9-3,103.5,88.6,75.9,49.5,44.2,36.7,33,22,13,29.59,29.43,26,11,28,0.00
2014-9-4,100.9,86.3,68.5,45.7,42.1,35.6,37,22,11,29.60,29.49,25,9,27,0.00
2014-9-5,100.8,85.6,68.7,43.2,37.2,30.6,35,20,9,29.78,29.60,21,7,23,0.00
2014-9-6,101.7,88.1,68.9,52.9,41.8,30.7,26,20,16,29.83,29.66,28,7,29,0.00
2014-9-7,102.0,88.2,73.6,62.8,49.4,39.9,40,27,19,29.74,29.57,40,11,41,0.00
2014-9-8,94.5,85.1,76.5,57.4,48.4,37.8,49,28,23,29.72,29.60,29,13,33,0.01
2014-9-9,96.6,83.0,71.8,37.8,33.8,27.1,28,18,10,29.81,29.69,25,8,28,0.00
2014-9-10,99.9,83.0,62.2,40.3,34.8,28.4,31,19,12,29.86,29.71,21,4,21,0.00
2014-9-11,101.1,85.4,68.7,42.1,36.8,30.6,29,18,12,29.82,29.67,14,3,16,0.00
2014-9-12,102.4,88.4,70.3,45.3,40.1,35.8,29,19,13,29.78,29.63,14,5,19,0.00
2014-9-13,103.3,88.7,70.5,46.0,41.7,36.1,30,20,13,29.74,29.58,21,5,22,0.00
2014-9-14,103.5,90.2,73.0,52.7,46.1,39.9,32,22,17,29.72,29.59,26,6,26,0.00
2014-9-15,105.4,91.0,73.8,53.1,49.2,45.7,39,25,15,29.76,29.63,17,5,19,0.00
2014-9-16,105.4,92.0,81.0,56.3,51.1,45.3,33,26,15,29.72,29.57,23,7,25,0.00
2014-9-17,102.4,88.3,73.8,54.7,49.9,43.3,42,28,19,29.67,29.52,22,6,24,0.00
2014-9-18,94.6,83.6,73.8,50.9,46.6,42.1,40,28,21,29.64,29.54,33,15,38,0.00
2014-9-19,92.1,78.7,66.9,51.3,45.9,36.5,55,34,19,29.76,29.63,25,7,29,0.00
2014-9-20,95.4,80.8,63.0,53.4,46.1,36.5,43,31,20,29.83,29.66,18,4,18,0.00
2014-9-21,93.7,81.0,66.7,53.4,48.6,37.6,53,34,16,29.84,29.73,19,5,24,0.00
2014-9-22,95.5,82.2,65.3,50.9,44.7,31.3,50,29,13,29.89,29.76,15,5,18,0.00
2014-9-23,98.1,82.8,63.9,46.4,37.1,22.3,46,23,8,29.89,29.75,24,6,25,0.00
2014-9-24,97.9,82.2,61.5,49.1,40.2,31.8,37,23,16,29.87,29.70,29,10,31,0.00
2014-9-25,96.1,83.2,72.0,57.9,52.4,44.8,47,35,26,29.79,29.66,38,18,41,0.00
2014-9-26,89.4,75.5,65.3,50.7,45.6,37.2,53,36,17,29.74,29.61,40,14,40,0.00
2014-9-27,79.2,67.3,59.0,42.3,38.9,33.8,49,36,22,29.71,29.61,29,12,31,0.00
2014-9-28,79.5,67.2,56.7,43.9,40.4,37.8,53,39,25,29.82,29.70,26,8,26,0.00
2014-9-29,82.4,68.9,56.1,44.8,41.4,36.9,58,39,23,29.93,29.81,26,4,26,0.00
2014-9-30,89.1,73.6,55.6,45.3,40.9,35.1,56,33,17,29.86,29.60,25,7,28,0.00
2014-10-1,87.3,74.0,62.2,42.4,36.3,22.1,41,27,16,29.91,29.63,19,4,21,0.00
2014-10-2,87.1,70.9,56.1,29.1,22.6,14.4,24,17,9,30.08,29.91,16,2,16,0.00
2014-10-3,92.7,73.8,56.1,29.5,21.6,14.2,20,14,9,30.11,29.98,12,2,15,0.00
2014-10-4,97.2,77.6,60.1,32.2,24.5,17.2,20,14,9,30.02,29.85,10,2,12,0.00
2014-10-5,97.2,79.0,60.6,33.8,26.1,18.1,21,15,10,29.94,29.81,13,3,13,0.00
2014-10-6,97.3,81.0,63.9,36.9,28.4,21.0,20,15,10,29.89,29.74,13,3,14,0.00
2014-10-7,97.5,79.9,61.3,41.7,33.3,27.1,30,19,12,29.83,29.69,22,4,23,0.00
2014-10-8,93.4,77.4,59.5,43.2,38.2,32.5,37,25,15,29.82,29.67,22,4,22,0.00
2014-10-9,96.8,78.9,61.9,42.4,36.2,27.3,38,23,13,29.78,29.66,26,7,26,0.00
2014-10-10,90.9,78.4,57.0,39.9,35.0,27.0,32,21,16,29.87,29.75,18,5,18,0.00
2014-10-11,92.8,77.3,58.3,38.7,35.6,31.5,40,23,13,29.94,29.77,23,6,24,0.00
2014-10-12,93.9,77.6,63.7,38.5,27.2,12.7,34,18,6,29.91,29.76,21,6,22,0.00
2014-10-13,87.6,71.7,52.3,26.1,19.5,11.1,24,14,9,30.03,29.91,13,2,13,0.00
2014-10-14,89.1,71.6,53.8,36.9,23.1,9.7,27,17,9,29.95,29.73,32,8,33,0.00
2014-10-15,82.8,71.3,63.3,43.3,37.4,27.1,47,30,19,29.80,29.69,38,20,38,0.00
2014-10-16,81.9,67.5,53.8,43.3,39.2,30.4,59,37,17,29.93,29.78,27,5,28,0.00
2014-10-17,82.4,67.4,51.6,41.4,35.1,26.1,49,32,15,29.90,29.76,26,6,27,0.00
2014-10-18,82.8,68.8,51.4,41.9,37.9,32.0,57,34,20,29.87,29.75,15,2,15,0.00
2014-10-19,89.8,73.2,58.6,43.2,38.4,32.0,40,29,20,29.85,29.72,12,2,13,0.00
2014-10-20,88.0,73.1,56.8,43.9,40.3,33.6,50,32,21,29.82,29.68,33,8,33,0.00
2014-10-21,82.9,69.9,59.0,43.7,39.3,32.9,54,34,18,29.82,29.71,30,10,30,0.00
2014-10-22,84.7,70.2,52.2,37.0,34.3,30.7,48,28,17,29.96,29.80,18,4,18,0.00
2014-10-23,88.9,71.1,51.4,37.0,32.3,27.0,41,25,14,29.99,29.85,23,5,24,0.00
2014-10-24,90.9,73.0,55.0,39.4,31.0,24.8,35,22,13,29.99,29.83,29,6,30,0.00
2014-10-25,83.8,73.5,64.4,44.4,37.9,31.5,38,28,22,29.92,29.82,40,16,40,0.00
2014-10-26,78.6,66.5,58.5,42.8,38.6,30.6,55,37,18,29.89,29.75,32,10,32,0.00
2014-10-27,76.8,63.4,53.8,39.4,31.3,23.2,50,32,18,29.95,29.81,18,4,18,0.00
2014-10-28,80.1,63.7,47.7,31.5,26.8,22.1,39,26,16,30.06,29.95,10,1,10,0.00
2014-10-29,84.6,66.9,52.5,32.5,25.8,19.9,32,22,13,30.11,29.96,11,2,11,0.00
2014-10-30,85.8,68.0,51.4,31.6,24.7,17.2,29,20,13,30.01,29.83,21,2,22,0.00
2014-10-31,75.6,66.5,56.7,46.9,40.2,28.6,65,40,22,29.85,29.59,49,17,49,0.00
2014-11-1,62.8,55.4,48.4,46.6,36.7,33.1,69,50,37,29.90,29.61,35,17,36,0.02
2014-11-2,67.5,54.6,46.0,37.6,32.5,24.4,66,45,23,30.09,29.90,17,5,18,0.00
2014-11-3,65.8,51.9,40.5,25.3,21.1,15.8,48,31,19,30.26,30.09,10,1,11,0.00
2014-11-4,70.0,54.5,37.2,23.9,18.7,15.1,43,26,15,30.34,30.21,11,2,12,0.00
2014-11-5,78.3,60.6,43.2,34.5,25.0,14.2,34,26,17,30.26,30.14,13,2,13,0.00
2014-11-6,81.9,63.8,47.1,36.3,30.4,25.3,45,30,18,30.26,30.11,10,1,12,0.00
2014-11-7,81.1,64.0,48.0,34.7,29.1,24.1,41,28,17,30.19,30.04,10,1,10,0.00
2014-11-8,84.4,66.4,51.1,35.8,30.4,25.9,41,27,17,30.15,29.99,10,2,11,0.00
2014-11-9,81.9,66.1,50.0,34.2,30.3,24.6,39,27,18,30.01,29.70,15,2,15,0.00
2014-11-10,81.3,65.0,48.6,35.2,31.7,26.1,43,30,18,29.73,29.62,13,2,13,0.00
2014-11-11,70.5,59.2,45.3,40.6,36.0,31.3,62,43,31,29.78,29.70,17,2,19,0.00
2014-11-12,73.8,59.8,46.2,41.2,36.2,27.7,67,43,29,29.90,29.78,17,4,17,0.00
2014-11-13,76.6,62.4,44.1,46.0,36.8,26.1,58,39,27,29.92,29.77,36,10,39,0.00
2014-11-14,75.0,63.5,56.7,38.7,36.1,33.8,45,37,24,29.88,29.79,31,10,31,0.00
2014-11-15,72.3,59.3,45.9,36.7,33.6,29.3,56,39,26,30.01,29.80,29,9,29,0.00
2014-11-16,61.9,51.3,38.8,30.4,7.7,-2.4,48,19,8,30.32,30.00,32,7,32,0.00
2014-11-17,62.2,47.2,35.2,7.3,1.7,-5.1,21,15,10,30.35,30.23,10,1,12,0.00
2014-11-18,66.2,49.8,33.8,15.3,7.1,-2.2,23,18,12,30.35,30.18,9,1,9,0.00
2014-11-19,69.3,55.5,41.2,39.6,19.1,5.5,53,26,14,30.19,30.00,25,6,29,0.00
2014-11-20,67.3,56.4,42.6,38.1,32.6,24.1,60,41,28,30.07,29.84,25,6,25,0.00
2014-11-21,69.8,57.2,45.0,36.3,33.9,29.5,63,43,23,30.03,29.83,21,6,26,0.00
2014-11-22,66.6,56.6,43.3,39.9,35.4,30.2,65,46,34,30.04,29.82,26,4,26,0.00
2014-11-23,67.5,54.3,43.5,35.4,22.1,13.5,54,30,16,30.26,29.96,14,2,15,0.00
2014-11-24,67.3,50.7,36.9,20.5,15.2,7.9,38,25,16,30.45,30.24,11,2,11,0.00
2014-11-25,68.4,51.1,34.5,19.4,13.7,7.0,33,23,15,30.51,30.35,6,1,7,0.00
2014-11-26,74.7,55.1,39.7,23.9,16.3,9.1,31,22,15,30.41,30.27,9,1,10,0.00
2014-11-27,72.7,54.8,41.7,25.3,18.1,11.5,33,24,16,30.28,30.10,7,1,7,0.00
2014-11-28,72.3,58.2,37.8,25.3,17.0,6.3,37,22,10,30.10,29.83,23,4,23,0.00
2014-11-29,77.4,66.2,59.0,26.1,20.6,16.7,28,18,14,29.83,29.68,32,15,33,0.00
2014-11-30,64.4,58.7,54.0,45.7,36.2,14.4,68,46,17,30.01,29.71,50,23,50,0.00
2014-12-1,62.1,53.8,44.1,45.1,40.6,36.7,80,61,51,30.19,30.00,27,3,28,0.00
2014-12-2,52.7,49.3,48.0,48.9,45.0,37.0,96,86,62,30.09,29.93,11,0,11,1.08
2014-12-3,62.4,54.2,49.8,54.1,50.9,48.7,97,89,71,30.04,29.91,16,3,16,0.01
2014-12-4,64.6,55.1,47.5,52.0,49.2,45.7,95,81,61,30.05,29.90,19,3,19,0.00
2014-12-5,59.7,53.2,46.2,51.8,48.7,44.2,95,85,71,30.17,30.04,6,1,7,0.01
2014-12-6,63.7,52.9,44.4,51.6,46.9,42.8,96,81,56,30.27,30.14,6,1,6,0.00
2014-12-7,64.6,52.1,43.0,47.1,43.4,40.5,92,74,46,30.32,30.19,9,1,10,0.00
2014-12-8,66.6,53.2,43.7,44.8,41.5,38.8,84,66,41,30.24,30.12,8,1,8,0.00
2014-12-9,67.5,53.2,42.4,41.9,39.3,36.3,82,61,35,30.21,30.07,8,1,10,0.00
2014-12-10,62.4,52.0,41.2,44.8,39.6,35.8,83,63,45,30.10,29.94,7,1,7,0.00
2014-12-11,63.0,52.2,42.4,44.2,41.3,37.6,86,67,44,29.95,29.81,20,4,21,0.00
2014-12-12,54.9,49.0,45.0,46.6,41.9,36.7,88,77,67,29.94,29.70,33,16,34,0.33
2014-12-13,59.4,49.0,40.5,39.9,36.2,33.1,82,62,42,30.11,29.94,26,7,30,0.00
2014-12-14,54.5,43.7,34.3,39.0,35.4,30.6,89,74,51,30.18,30.08,7,1,7,0.00
2014-12-15,52.5,42.5,34.3,39.6,35.7,31.6,91,78,52,30.17,30.02,16,0,16,0.10
2014-12-16,48.4,42.1,34.3,42.3,38.5,32.5,94,87,75,30.08,29.98,8,1,10,0.01
2014-12-17,53.8,46.3,41.5,46.9,39.8,33.4,96,79,59,30.10,29.96,21,4,22,0.03
2014-12-18,55.6,44.7,34.3,41.4,36.8,31.1,90,75,51,30.26,30.09,10,1,10,0.00
2014-12-19,54.1,43.6,35.2,41.4,37.5,32.5,92,80,56,30.29,30.16,14,1,16,0.00
2014-12-20,51.1,42.6,36.9,42.1,38.5,34.3,93,86,70,30.24,30.11,6,1,6,0.01
2014-12-21,55.6,44.5,35.4,44.6,39.3,33.8,94,83,62,30.25,30.14,6,1,6,0.00
2014-12-22,63.5,48.6,36.1,47.1,41.6,33.8,94,78,55,30.19,30.05,7,1,7,0.01
2014-12-23,69.4,54.9,42.6,44.4,39.8,36.7,86,59,33,30.26,30.13,9,2,10,0.00
2014-12-24,66.9,52.3,39.7,41.7,37.8,34.3,86,60,32,30.17,29.66,37,7,37,0.00
2014-12-25,53.2,47.6,42.4,34.2,20.2,13.3,52,35,22,29.92,29.65,45,13,48,0.00